Time,TemperatureF,DewpointF,PressureIn,WindDirection,WindDirectionDegrees,WindSpeedMPH,WindSpeedGustMPH,Humidity,HourlyPrecipIn,Conditions,Clouds,dailyrainin,SolarRadiationWatts/m^2,SoftwareType,DateUTC
2013-03-03 00:29:00,33.4,27.6,29.64,WNW,284,1.0,4.0,79,0.00,CLR,,0.00,0.0,WeatherDisplay:10.37,2013-03-03 05:29:00,
2013-03-03 01:00:00,33.1,27.3,29.64,West,272,0.0,6.0,79,0.00,CLR,,0.00,0.0,WeatherDisplay:10.37,2013-03-03 06:00:00,
2013-03-03 01:29:00,32.8,27.3,29.64,NW,304,0.0,6.0,80,0.00,CLR,,0.00,0.0,WeatherDisplay:10.37,2013-03-03 06:29:00,
2013-03-03 02:00:00,32.6,27.1,29.63,West,261,0.0,3.0,80,0.00,CLR,,0.00,0.0,WeatherDisplay:10.37,2013-03-03 07:00:00,
2013-03-03 02:29:00,32.3,26.8,29.63,West,263,0.0,3.0,80,0.00,CLR,,0.00,0.0,WeatherDisplay:10.37,2013-03-03 07:29:00,
2013-03-03 03:00:00,32.1,26.9,29.62,NNW,327,0.0,6.0,81,0.00,CLR,,0.00,0.0,WeatherDisplay:10.37,2013-03-03 08:00:00,
2013-03-03 03:29:00,32.0,26.8,29.62,West,270,0.0,5.0,81,0.00,CLR,,0.00,0.0,WeatherDisplay:10.37,2013-03-03 08:29:00,
2013-03-03 04:00:00,31.9,27.0,29.62,WNW,291,1.0,4.0,82,0.00,CLR,,0.00,0.0,WeatherDisplay:10.37,2013-03-03 09:00:00,
2013-03-03 04:29:00,31.8,26.9,29.62,WNW,302,0.0,6.0,82,0.00,CLR,,0.00,0.0,WeatherDisplay:10.37,2013-03-03 09:29:00,
2013-03-03 05:00:00,31.7,26.8,29.62,NW,315,1.0,4.0,82,0.00,CLR,,0.00,0.0,WeatherDisplay:10.37,2013-03-03 10:00:00,
2013-03-03 05:30:00,31.6,26.8,29.62,WNW,296,3.0,5.0,82,0.00,CLR,,0.00,0.0,WeatherDisplay:10.37,2013-03-03 10:30:00,
2013-03-03 06:00:00,31.4,27.1,29.63,NW,311,1.0,7.0,84,0.00,OVC,,0.00,0.0,WeatherDisplay:10.37,2013-03-03 11:00:00,
2013-03-03 06:29:00,30.8,27.1,29.63,WNW,300,0.0,6.0,86,0.00,BKN,,0.00,9.0,WeatherDisplay:10.37,2013-03-03 11:29:00,
2013-03-03 07:00:00,30.8,27.1,29.64,NW,305,0.0,8.0,86,0.00,BKN,,0.00,25.0,WeatherDisplay:10.37,2013-03-03 12:00:00,
2013-03-03 07:29:00,31.0,27.3,29.64,WSW,244,0.0,4.0,86,0.00,BKN,,0.00,69.0,WeatherDisplay:10.37,2013-03-03 12:29:00,
2013-03-03 08:00:00,31.1,27.7,29.64,West,279,1.0,5.0,87,0.00,BKN,,0.00,118.0,WeatherDisplay:10.37,2013-03-03 13:00:00,
2013-03-03 08:29:00,32.0,28.6,29.63,WNW,297,2.0,7.0,87,0.00,CLR,,0.00,260.0,WeatherDisplay:10.37,2013-03-03 13:29:00,
2013-03-03 09:00:00,32.6,28.9,29.63,West,279,2.0,6.0,86,0.00,FEW,,0.00,290.0,WeatherDisplay:10.37,2013-03-03 14:00:00,
2013-03-03 09:29:00,33.6,29.6,29.62,West,265,1.0,5.0,85,0.00,FEW,,0.00,371.0,WeatherDisplay:10.37,2013-03-03 14:29:00,
2013-03-03 10:00:00,34.0,30.5,29.62,WNW,300,1.0,7.0,87,0.00,SCT,,0.00,378.0,WeatherDisplay:10.37,2013-03-03 15:00:00,
2013-03-03 10:29:00,34.4,30.6,29.61,WNW,294,0.0,7.0,86,0.00,FEW,,0.00,394.0,WeatherDisplay:10.37,2013-03-03 15:29:00,
2013-03-03 11:00:00,34.5,30.2,29.61,West,272,1.0,9.0,84,0.00,SCT,,0.00,418.0,WeatherDisplay:10.37,2013-03-03 16:00:00,
2013-03-03 11:29:00,35.8,31.1,29.61,WNW,291,2.0,10.0,83,0.00,SCT,,0.00,308.0,WeatherDisplay:10.37,2013-03-03 16:29:00,
2013-03-03 12:00:00,36.9,32.2,29.60,WNW,283,2.0,7.0,83,0.00,FEW,,0.00,606.0,WeatherDisplay:10.37,2013-03-03 17:00:00,
2013-03-03 12:29:00,37.9,32.3,29.58,WNW,294,2.0,7.0,80,0.00,SCT,,0.00,429.0,WeatherDisplay:10.37,2013-03-03 17:29:00,
2013-03-03 13:00:00,38.8,32.5,29.58,WNW,286,3.0,9.0,78,0.00,SCT,,0.00,422.0,WeatherDisplay:10.37,2013-03-03 18:00:00,
2013-03-03 13:29:00,39.3,32.7,29.57,West,275,3.0,7.0,77,0.00,SCT,,0.00,276.0,WeatherDisplay:10.37,2013-03-03 18:29:00,
2013-03-03 14:00:00,39.1,32.2,29.57,WSW,247,1.0,7.0,76,0.00,BKN,,0.00,237.0,WeatherDisplay:10.37,2013-03-03 19:00:00,
2013-03-03 14:30:00,39.4,32.8,29.56,WNW,291,3.0,9.0,77,0.00,OVC,,0.00,304.0,WeatherDisplay:10.37,2013-03-03 19:30:00,
2013-03-03 15:00:00,38.6,33.3,29.56,WNW,285,3.0,9.0,81,0.00,OVC,,0.00,190.0,WeatherDisplay:10.37,2013-03-03 20:00:00,
2013-03-03 15:30:00,38.2,32.6,29.56,WNW,293,0.0,6.0,80,0.00,OVC,,0.00,118.0,WeatherDisplay:10.37,2013-03-03 20:30:00,
2013-03-03 16:00:00,38.3,32.4,29.56,West,265,1.0,4.0,79,0.00,CLR,,0.00,102.0,WeatherDisplay:10.37,2013-03-03 21:00:00,
2013-03-03 16:30:00,38.3,33.0,29.57,WSW,248,1.0,4.0,81,0.00,CLR,,0.00,53.0,WeatherDisplay:10.37,2013-03-03 21:30:00,
2013-03-03 17:00:00,37.7,33.0,29.57,WSW,257,0.0,4.0,83,0.00,CLR,,0.00,33.0,WeatherDisplay:10.37,2013-03-03 22:00:00,
2013-03-03 18:00:00,36.0,32.8,29.58,SW,236,0.0,3.0,88,0.00,CLR,,0.00,0.0,WeatherDisplay:10.37,2013-03-03 23:00:00,
2013-03-03 18:29:00,35.3,32.7,29.58,SW,227,0.0,1.0,90,0.00,CLR,,0.00,0.0,WeatherDisplay:10.37,2013-03-03 23:29:00,
2013-03-03 19:00:00,35.3,30.9,29.59,WNW,285,1.0,9.0,84,0.00,CLR,,0.00,0.0,WeatherDisplay:10.37,2013-03-04 00:00:00,
2013-03-03 19:29:00,35.2,30.3,29.59,West,272,2.0,10.0,82,0.00,CLR,,0.00,0.0,WeatherDisplay:10.37,2013-03-04 00:29:00,
2013-03-03 20:00:00,35.1,29.6,29.59,WNW,283,1.0,6.0,80,0.00,CLR,,0.00,0.0,WeatherDisplay:10.37,2013-03-04 01:00:00,
2013-03-03 20:29:00,35.0,29.8,29.59,West,259,0.0,6.0,81,0.00,CLR,,0.00,0.0,WeatherDisplay:10.37,2013-03-04 01:29:00,
2013-03-03 21:00:00,35.3,29.1,29.60,West,274,3.0,9.0,78,0.00,CLR,,0.00,0.0,WeatherDisplay:10.37,2013-03-04 02:00:00,
2013-03-03 21:29:00,35.0,28.8,29.60,WNW,292,2.0,13.0,78,0.00,CLR,,0.00,0.0,WeatherDisplay:10.37,2013-03-04 02:29:00,
2013-03-03 22:00:00,34.4,28.6,29.59,NW,322,5.0,9.0,79,0.00,CLR,,0.00,0.0,WeatherDisplay:10.37,2013-03-04 03:00:00,
2013-03-03 22:29:00,34.4,28.6,29.59,WNW,282,3.0,10.0,79,0.00,CLR,,0.00,0.0,WeatherDisplay:10.37,2013-03-04 03:29:00,
2013-03-03 23:00:00,34.2,27.7,29.59,WNW,294,3.0,12.0,77,0.00,CLR,,0.00,0.0,WeatherDisplay:10.37,2013-03-04 04:00:00,
2013-03-03 23:29:00,33.7,27.2,29.59,WNW,291,3.0,15.0,77,0.00,CLR,,0.00,0.0,WeatherDisplay:10.37,2013-03-04 04:29:00,